sensor_id;sensor_type;location;lat;lon;timestamp;P1;durP1;ratioP1;P2;durP2;ratioP2
16137;SDS011;8174;43.550;5.206;2023-05-18T00:00:37;4.93;;;2.22;;
16137;SDS011;8174;43.550;5.206;2023-05-18T00:03:06;5.05;;;2.10;;
16137;SDS011;8174;43.550;5.206;2023-05-18T00:05:34;2.97;;;2.10;;
16137;SDS011;8174;43.550;5.206;2023-05-18T00:08:02;3.15;;;1.85;;
16137;SDS011;8174;43.550;5.206;2023-05-18T00:10:29;2.67;;;1.90;;
16137;SDS011;8174;43.550;5.206;2023-05-18T00:12:56;3.85;;;2.33;;
16137;SDS011;8174;43.550;5.206;2023-05-18T00:15:24;3.85;;;2.00;;
16137;SDS011;8174;43.550;5.206;2023-05-18T00:17:51;4.07;;;2.30;;
16137;SDS011;8174;43.550;5.206;2023-05-18T00:20:20;3.35;;;2.10;;
16137;SDS011;8174;43.550;5.206;2023-05-18T00:22:50;3.63;;;2.10;;
16137;SDS011;8174;43.550;5.206;2023-05-18T00:25:17;3.53;;;2.20;;
16137;SDS011;8174;43.550;5.206;2023-05-18T00:27:45;2.60;;;2.20;;
16137;SDS011;8174;43.550;5.206;2023-05-18T00:30:14;5.47;;;2.28;;
16137;SDS011;8174;43.550;5.206;2023-05-18T00:32:41;3.85;;;2.17;;
16137;SDS011;8174;43.550;5.206;2023-05-18T00:35:08;4.07;;;2.40;;
16137;SDS011;8174;43.550;5.206;2023-05-18T00:37:37;3.72;;;2.22;;
16137;SDS011;8174;43.550;5.206;2023-05-18T00:40:05;5.22;;;2.63;;
16137;SDS011;8174;43.550;5.206;2023-05-18T00:42:33;5.68;;;2.30;;
16137;SDS011;8174;43.550;5.206;2023-05-18T00:45:00;4.40;;;2.40;;
16137;SDS011;8174;43.550;5.206;2023-05-18T00:47:27;7.78;;;2.50;;
16137;SDS011;8174;43.550;5.206;2023-05-18T00:49:56;2.92;;;2.10;;
16137;SDS011;8174;43.550;5.206;2023-05-18T00:52:23;4.07;;;2.30;;
16137;SDS011;8174;43.550;5.206;2023-05-18T00:54:51;3.47;;;2.50;;
16137;SDS011;8174;43.550;5.206;2023-05-18T00:57:20;7.55;;;2.53;;
16137;SDS011;8174;43.550;5.206;2023-05-18T00:59:47;6.88;;;2.50;;
16137;SDS011;8174;43.550;5.206;2023-05-18T01:02:15;2.80;;;2.50;;
16137;SDS011;8174;43.550;5.206;2023-05-18T01:04:44;8.07;;;2.70;;
16137;SDS011;8174;43.550;5.206;2023-05-18T01:07:11;5.30;;;2.60;;
16137;SDS011;8174;43.550;5.206;2023-05-18T01:09:40;4.65;;;2.28;;
16137;SDS011;8174;43.550;5.206;2023-05-18T01:12:11;3.33;;;2.70;;
16137;SDS011;8174;43.550;5.206;2023-05-18T01:14:43;4.47;;;2.60;;
16137;SDS011;8174;43.550;5.206;2023-05-18T01:17:15;3.90;;;2.67;;
16137;SDS011;8174;43.550;5.206;2023-05-18T01:19:54;6.73;;;2.67;;
16137;SDS011;8174;43.550;5.206;2023-05-18T01:22:31;5.10;;;2.47;;
16137;SDS011;8174;43.550;5.206;2023-05-18T01:25:01;3.85;;;2.60;;
16137;SDS011;8174;43.550;5.206;2023-05-18T01:27:32;5.47;;;2.50;;
16137;SDS011;8174;43.550;5.206;2023-05-18T01:30:01;5.70;;;2.57;;
16137;SDS011;8174;43.550;5.206;2023-05-18T01:32:29;4.63;;;2.60;;
16137;SDS011;8174;43.550;5.206;2023-05-18T01:34:56;4.68;;;2.38;;
16137;SDS011;8174;43.550;5.206;2023-05-18T01:37:24;4.70;;;2.70;;
16137;SDS011;8174;43.550;5.206;2023-05-18T01:39:51;3.97;;;2.80;;
16137;SDS011;8174;43.550;5.206;2023-05-18T01:42:20;8.20;;;2.90;;
16137;SDS011;8174;43.550;5.206;2023-05-18T01:44:52;4.23;;;2.70;;
16137;SDS011;8174;43.550;5.206;2023-05-18T01:47:20;3.77;;;2.50;;
16137;SDS011;8174;43.550;5.206;2023-05-18T01:49:50;5.20;;;2.45;;
16137;SDS011;8174;43.550;5.206;2023-05-18T14:49:15;3.55;;;2.30;;
16137;SDS011;8174;43.550;5.206;2023-05-18T14:51:42;4.32;;;2.10;;
16137;SDS011;8174;43.550;5.206;2023-05-18T14:54:09;3.63;;;2.03;;
16137;SDS011;8174;43.550;5.206;2023-05-18T14:56:38;3.97;;;2.17;;
16137;SDS011;8174;43.550;5.206;2023-05-18T14:59:05;2.92;;;2.40;;
16137;SDS011;8174;43.550;5.206;2023-05-18T15:01:32;3.03;;;2.38;;
16137;SDS011;8174;43.550;5.206;2023-05-18T15:04:00;4.07;;;2.72;;
16137;SDS011;8174;43.550;5.206;2023-05-18T15:06:28;3.50;;;3.00;;
16137;SDS011;8174;43.550;5.206;2023-05-18T15:08:57;6.28;;;3.47;;
16137;SDS011;8174;43.550;5.206;2023-05-18T15:11:24;5.80;;;3.53;;
16137;SDS011;8174;43.550;5.206;2023-05-18T15:13:51;7.57;;;4.05;;
16137;SDS011;8174;43.550;5.206;2023-05-18T15:16:19;7.13;;;4.65;;
16137;SDS011;8174;43.550;5.206;2023-05-18T15:18:46;7.63;;;4.50;;
16137;SDS011;8174;43.550;5.206;2023-05-18T15:21:13;7.13;;;4.93;;
16137;SDS011;8174;43.550;5.206;2023-05-18T15:23:42;6.90;;;5.70;;
16137;SDS011;8174;43.550;5.206;2023-05-18T15:26:09;7.10;;;5.68;;
16137;SDS011;8174;43.550;5.206;2023-05-18T15:28:37;7.32;;;5.55;;
16137;SDS011;8174;43.550;5.206;2023-05-18T15:31:07;6.63;;;5.55;;
16137;SDS011;8174;43.550;5.206;2023-05-18T15:33:35;8.05;;;5.75;;
16137;SDS011;8174;43.550;5.206;2023-05-18T15:36:06;7.57;;;6.18;;
16137;SDS011;8174;43.550;5.206;2023-05-18T15:38:33;9.55;;;5.90;;
16137;SDS011;8174;43.550;5.206;2023-05-18T15:41:02;8.02;;;6.22;;
16137;SDS011;8174;43.550;5.206;2023-05-18T15:43:29;8.45;;;7.00;;
16137;SDS011;8174;43.550;5.206;2023-05-18T15:45:57;8.27;;;6.63;;
16137;SDS011;8174;43.550;5.206;2023-05-18T15:48:25;11.75;;;8.15;;
16137;SDS011;8174;43.550;5.206;2023-05-18T15:50:53;11.48;;;8.57;;
16137;SDS011;8174;43.550;5.206;2023-05-18T15:53:20;14.93;;;9.15;;
16137;SDS011;8174;43.550;5.206;2023-05-18T15:55:49;14.98;;;10.00;;
16137;SDS011;8174;43.550;5.206;2023-05-18T15:58:20;16.25;;;10.77;;
16137;SDS011;8174;43.550;5.206;2023-05-18T16:00:47;15.05;;;12.00;;
16137;SDS011;8174;43.550;5.206;2023-05-18T16:03:14;13.07;;;11.73;;
16137;SDS011;8174;43.550;5.206;2023-05-18T16:05:43;17.55;;;13.07;;
16137;SDS011;8174;43.550;5.206;2023-05-18T16:08:10;18.20;;;12.73;;
16137;SDS011;8174;43.550;5.206;2023-05-18T16:10:37;16.92;;;14.05;;
16137;SDS011;8174;43.550;5.206;2023-05-18T16:13:05;17.05;;;13.90;;
16137;SDS011;8174;43.550;5.206;2023-05-18T16:15:34;15.27;;;13.05;;
16137;SDS011;8174;43.550;5.206;2023-05-18T16:18:01;14.55;;;12.88;;
16137;SDS011;8174;43.550;5.206;2023-05-18T16:20:29;19.00;;;14.05;;
16137;SDS011;8174;43.550;5.206;2023-05-18T16:22:56;14.55;;;11.95;;
16137;SDS011;8174;43.550;5.206;2023-05-18T16:25:23;15.57;;;12.98;;
16137;SDS011;8174;43.550;5.206;2023-05-18T16:27:52;14.48;;;10.80;;
16137;SDS011;8174;43.550;5.206;2023-05-18T16:30:19;12.48;;;9.82;;
16137;SDS011;8174;43.550;5.206;2023-05-18T16:32:48;19.52;;;9.25;;
16137;SDS011;8174;43.550;5.206;2023-05-18T16:38:03;13.00;;;9.98;;
16137;SDS011;8174;43.550;5.206;2023-05-18T16:40:30;16.05;;;10.65;;
16137;SDS011;8174;43.550;5.206;2023-05-18T16:42:57;13.77;;;10.18;;
16137;SDS011;8174;43.550;5.206;2023-05-18T16:45:25;12.38;;;9.27;;
16137;SDS011;8174;43.550;5.206;2023-05-18T16:47:54;14.13;;;9.35;;
16137;SDS011;8174;43.550;5.206;2023-05-18T16:53:11;11.45;;;8.20;;
16137;SDS011;8174;43.550;5.206;2023-05-18T16:55:38;11.23;;;7.13;;
16137;SDS011;8174;43.550;5.206;2023-05-18T16:58:17;7.22;;;5.93;;
16137;SDS011;8174;43.550;5.206;2023-05-18T17:00:45;8.02;;;6.03;;
16137;SDS011;8174;43.550;5.206;2023-05-18T17:03:23;8.77;;;5.68;;
16137;SDS011;8174;43.550;5.206;2023-05-18T17:05:51;5.93;;;5.22;;
16137;SDS011;8174;43.550;5.206;2023-05-18T17:08:18;6.30;;;4.20;;
16137;SDS011;8174;43.550;5.206;2023-05-18T17:10:46;8.02;;;4.50;;
16137;SDS011;8174;43.550;5.206;2023-05-18T17:13:13;6.32;;;4.55;;
16137;SDS011;8174;43.550;5.206;2023-05-18T17:15:46;7.05;;;5.05;;
16137;SDS011;8174;43.550;5.206;2023-05-18T17:18:13;7.47;;;5.38;;
16137;SDS011;8174;43.550;5.206;2023-05-18T17:20:42;6.93;;;5.38;;
16137;SDS011;8174;43.550;5.206;2023-05-18T17:23:09;9.13;;;4.68;;
16137;SDS011;8174;43.550;5.206;2023-05-18T17:25:41;8.98;;;5.10;;
